sensor_id;sensor_type;location;lat;lon;timestamp;pressure;altitude;pressure_sealevel;temperature;humidity
39681;BME280;26327;42.550;23.120;2023-04-04T07:32:03;91556.25;;;8.09;nan
39681;BME280;26327;42.550;23.120;2023-04-04T07:34:29;91551.50;;;8.12;nan
39681;BME280;26327;42.550;23.120;2023-04-04T07:36:54;91514.53;;;7.51;nan
39681;BME280;26327;42.550;23.120;2023-04-04T07:39:20;91572.38;;;8.04;nan
39681;BME280;26327;42.550;23.120;2023-04-04T07:41:45;91589.28;;;8.07;nan
39681;BME280;26327;42.550;23.120;2023-04-04T07:44:11;91483.78;;;7.08;nan
39681;BME280;26327;42.550;23.120;2023-04-04T07:46:36;91590.44;;;7.91;nan
39681;BME280;26327;42.550;23.120;2023-04-04T07:49:02;91591.41;;;7.90;nan
39681;BME280;26327;42.550;23.120;2023-04-04T07:51:27;91537.66;;;7.66;nan
39681;BME280;26327;42.550;23.120;2023-04-04T07:53:55;91585.53;;;8.09;nan
39681;BME280;26327;42.550;23.120;2023-04-04T07:56:21;91569.72;;;7.78;nan
39681;BME280;26327;42.550;23.120;2023-04-04T07:58:47;91531.78;;;7.31;nan
39681;BME280;26327;42.550;23.120;2023-04-04T08:01:12;91601.41;;;7.52;nan
39681;BME280;26327;42.550;23.120;2023-04-04T08:03:37;91612.66;;;7.72;nan
39681;BME280;26327;42.550;23.120;2023-04-04T08:06:03;91612.44;;;7.67;nan
39681;BME280;26327;42.550;23.120;2023-04-04T08:08:28;91611.00;;;7.58;nan
39681;BME280;26327;42.550;23.120;2023-04-04T08:10:54;91605.38;;;7.48;nan
39681;BME280;26327;42.550;23.120;2023-04-04T08:13:19;91554.13;;;7.10;nan
39681;BME280;26327;42.550;23.120;2023-04-04T08:15:45;91606.25;;;7.20;nan
39681;BME280;26327;42.550;23.120;2023-04-04T08:18:11;91589.88;;;6.79;nan
39681;BME280;26327;42.550;23.120;2023-04-04T08:20:36;91628.78;;;6.77;nan
39681;BME280;26327;42.550;23.120;2023-04-04T08:23:02;91513.50;;;5.86;nan
39681;BME280;26327;42.550;23.120;2023-04-04T08:25:27;91639.38;;;6.61;nan
39681;BME280;26327;42.550;23.120;2023-04-04T08:27:53;91585.34;;;6.31;nan
39681;BME280;26327;42.550;23.120;2023-04-04T08:30:19;91523.91;;;5.92;nan
39681;BME280;26327;42.550;23.120;2023-04-04T08:32:44;91638.88;;;6.72;nan
39681;BME280;26327;42.550;23.120;2023-04-04T08:35:10;91648.03;;;6.75;nan
39681;BME280;26327;42.550;23.120;2023-04-04T08:37:37;91646.06;;;6.55;nan
39681;BME280;26327;42.550;23.120;2023-04-04T08:40:05;91637.09;;;6.73;nan
39681;BME280;26327;42.550;23.120;2023-04-04T08:42:34;91643.34;;;6.85;nan
39681;BME280;26327;42.550;23.120;2023-04-04T08:45:03;91586.31;;;6.52;nan
39681;BME280;26327;42.550;23.120;2023-04-04T08:47:30;91649.81;;;7.02;nan
39681;BME280;26327;42.550;23.120;2023-04-04T08:49:58;91547.41;;;6.25;nan
39681;BME280;26327;42.550;23.120;2023-04-04T08:52:27;91675.56;;;6.89;nan
39681;BME280;26327;42.550;23.120;2023-04-04T08:54:52;91612.00;;;6.39;nan
39681;BME280;26327;42.550;23.120;2023-04-04T08:57:19;91602.19;;;6.55;nan
39681;BME280;26327;42.550;23.120;2023-04-04T08:59:45;91635.47;;;6.44;nan
39681;BME280;26327;42.550;23.120;2023-04-04T09:02:28;91689.78;;;6.78;nan
39681;BME280;26327;42.550;23.120;2023-04-04T09:04:55;91682.50;;;6.46;nan
39681;BME280;26327;42.550;23.120;2023-04-04T09:07:22;91629.19;;;6.31;nan
39681;BME280;26327;42.550;23.120;2023-04-04T09:09:49;91632.69;;;6.45;nan
39681;BME280;26327;42.550;23.120;2023-04-04T09:12:16;91700.41;;;6.69;nan
39681;BME280;26327;42.550;23.120;2023-04-04T09:14:43;91692.47;;;6.49;nan
39681;BME280;26327;42.550;23.120;2023-04-04T09:17:08;91700.19;;;6.27;nan
39681;BME280;26327;42.550;23.120;2023-04-04T09:19:35;91697.81;;;6.26;nan
39681;BME280;26327;42.550;23.120;2023-04-04T09:22:01;91694.25;;;6.48;nan
39681;BME280;26327;42.550;23.120;2023-04-04T09:24:41;91690.19;;;6.60;nan
39681;BME280;26327;42.550;23.120;2023-04-04T09:27:10;91627.75;;;6.08;nan
39681;BME280;26327;42.550;23.120;2023-04-04T09:29:40;91692.84;;;6.46;nan
39681;BME280;26327;42.550;23.120;2023-04-04T09:32:11;91690.13;;;6.75;nan
39681;BME280;26327;42.550;23.120;2023-04-04T09:34:38;91624.81;;;6.11;nan
39681;BME280;26327;42.550;23.120;2023-04-04T09:37:05;91702.66;;;6.36;nan
39681;BME280;26327;42.550;23.120;2023-04-04T09:39:31;91646.34;;;6.18;nan
39681;BME280;26327;42.550;23.120;2023-04-04T09:41:58;91700.50;;;6.60;nan
39681;BME280;26327;42.550;23.120;2023-04-04T09:44:23;91692.72;;;6.75;nan
39681;BME280;26327;42.550;23.120;2023-04-04T09:46:49;91651.56;;;6.46;nan
39681;BME280;26327;42.550;23.120;2023-04-04T09:49:19;91708.06;;;6.62;nan
39681;BME280;26327;42.550;23.120;2023-04-04T09:51:52;91709.69;;;6.84;nan
39681;BME280;26327;42.550;23.120;2023-04-04T09:54:22;91712.13;;;6.92;nan
39681;BME280;26327;42.550;23.120;2023-04-04T09:56:48;91702.97;;;6.90;nan
39681;BME280;26327;42.550;23.120;2023-04-04T09:59:15;91649.41;;;6.49;nan
39681;BME280;26327;42.550;23.120;2023-04-04T10:01:42;91723.16;;;7.29;nan
39681;BME280;26327;42.550;23.120;2023-04-04T10:04:09;91712.78;;;7.22;nan
39681;BME280;26327;42.550;23.120;2023-04-04T10:06:37;91647.22;;;7.02;nan
39681;BME280;26327;42.550;23.120;2023-04-04T10:09:03;91709.94;;;7.17;nan
39681;BME280;26327;42.550;23.120;2023-04-04T10:11:31;91718.63;;;7.38;nan
39681;BME280;26327;42.550;23.120;2023-04-04T10:13:58;91703.19;;;7.16;nan
39681;BME280;26327;42.550;23.120;2023-04-04T10:16:24;91695.94;;;7.05;nan
39681;BME280;26327;42.550;23.120;2023-04-04T10:18:51;91717.09;;;6.94;nan
39681;BME280;26327;42.550;23.120;2023-04-04T10:21:16;91715.06;;;6.89;nan
39681;BME280;26327;42.550;23.120;2023-04-04T10:23:44;91659.59;;;6.57;nan
39681;BME280;26327;42.550;23.120;2023-04-04T10:26:11;91726.53;;;7.08;nan
39681;BME280;26327;42.550;23.120;2023-04-04T10:28:37;91730.00;;;6.94;nan
39681;BME280;26327;42.550;23.120;2023-04-04T10:34:13;91741.59;;;6.41;nan
39681;BME280;26327;42.550;23.120;2023-04-04T10:36:48;91697.81;;;6.11;nan
39681;BME280;26327;42.550;23.120;2023-04-04T10:39:20;91738.78;;;6.36;nan
39681;BME280;26327;42.550;23.120;2023-04-04T10:41:50;91673.56;;;6.06;nan
39681;BME280;26327;42.550;23.120;2023-04-04T10:44:32;91738.72;;;6.29;nan
39681;BME280;26327;42.550;23.120;2023-04-04T10:47:15;91683.88;;;6.06;nan
39681;BME280;26327;42.550;23.120;2023-04-04T10:49:43;91695.72;;;6.36;nan
39681;BME280;26327;42.550;23.120;2023-04-04T10:52:10;91734.94;;;6.68;nan
39681;BME280;26327;42.550;23.120;2023-04-04T10:54:38;91691.34;;;6.37;nan
39681;BME280;26327;42.550;23.120;2023-04-04T10:57:04;91703.66;;;6.56;nan
39681;BME280;26327;42.550;23.120;2023-04-04T10:59:29;91709.34;;;6.30;nan
39681;BME280;26327;42.550;23.120;2023-04-04T11:01:56;91767.59;;;6.60;nan
39681;BME280;26327;42.550;23.120;2023-04-04T11:04:37;91687.13;;;6.29;nan
39681;BME280;26327;42.550;23.120;2023-04-04T11:07:11;91714.00;;;6.20;nan
39681;BME280;26327;42.550;23.120;2023-04-04T11:09:49;91771.16;;;6.38;nan
39681;BME280;26327;42.550;23.120;2023-04-04T11:12:15;91722.91;;;6.17;nan
39681;BME280;26327;42.550;23.120;2023-04-04T11:17:42;91766.19;;;6.58;nan
39681;BME280;26327;42.550;23.120;2023-04-04T11:20:09;91766.97;;;6.37;nan
39681;BME280;26327;42.550;23.120;2023-04-04T11:22:35;91762.44;;;6.60;nan
39681;BME280;26327;42.550;23.120;2023-04-04T11:25:39;91775.72;;;6.57;nan
39681;BME280;26327;42.550;23.120;2023-04-04T11:33:54;91780.50;;;6.60;nan
39681;BME280;26327;42.550;23.120;2023-04-04T11:44:25;91787.25;;;6.40;nan
39681;BME280;26327;42.550;23.120;2023-04-04T11:47:00;91794.13;;;6.33;nan
39681;BME280;26327;42.550;23.120;2023-04-04T11:49:28;91794.47;;;6.30;nan
39681;BME280;26327;42.550;23.120;2023-04-04T11:51:55;91776.56;;;6.43;nan
39681;BME280;26327;42.550;23.120;2023-04-04T11:54:20;91735.88;;;6.09;nan
39681;BME280;26327;42.550;23.120;2023-04-04T11:56:46;91792.06;;;6.28;nan
39681;BME280;26327;42.550;23.120;2023-04-04T11:59:12;91782.38;;;6.30;nan
39681;BME280;26327;42.550;23.120;2023-04-04T12:01:42;91798.13;;;6.36;nan
39681;BME280;26327;42.550;23.120;2023-04-04T12:04:09;91779.84;;;6.16;nan
39681;BME280;26327;42.550;23.120;2023-04-04T12:06:35;91771.81;;;6.11;nan
39681;BME280;26327;42.550;23.120;2023-04-04T12:09:02;91728.72;;;5.75;nan
39681;BME280;26327;42.550;23.120;2023-04-04T12:11:29;91778.47;;;6.05;nan
39681;BME280;26327;42.550;23.120;2023-04-04T12:13:56;91773.34;;;5.90;nan
39681;BME280;26327;42.550;23.120;2023-04-04T12:16:22;91766.13;;;6.15;nan
39681;BME280;26327;42.550;23.120;2023-04-04T12:18:48;91745.13;;;5.89;nan
39681;BME280;26327;42.550;23.120;2023-04-04T12:21:14;91782.56;;;5.85;nan
39681;BME280;26327;42.550;23.120;2023-04-04T12:23:40;91786.00;;;5.48;nan
39681;BME280;26327;42.550;23.120;2023-04-04T12:26:06;91736.69;;;5.36;nan
39681;BME280;26327;42.550;23.120;2023-04-04T12:28:34;91730.06;;;5.19;nan
39681;BME280;26327;42.550;23.120;2023-04-04T12:31:02;91792.13;;;5.61;nan
39681;BME280;26327;42.550;23.120;2023-04-04T12:33:31;91782.63;;;5.47;nan
39681;BME280;26327;42.550;23.120;2023-04-04T12:35:58;91733.88;;;5.08;nan
39681;BME280;26327;42.550;23.120;2023-04-04T12:38:24;91798.63;;;5.57;nan
39681;BME280;26327;42.550;23.120;2023-04-04T12:40:51;91800.47;;;5.63;nan
39681;BME280;26327;42.550;23.120;2023-04-04T12:43:17;91740.47;;;5.11;nan
39681;BME280;26327;42.550;23.120;2023-04-04T12:45:43;91732.72;;;4.96;nan
39681;BME280;26327;42.550;23.120;2023-04-04T12:48:13;91741.94;;;4.90;nan
39681;BME280;26327;42.550;23.120;2023-04-04T12:50:59;91743.66;;;5.13;nan
39681;BME280;26327;42.550;23.120;2023-04-04T12:53:28;91804.19;;;5.09;nan
39681;BME280;26327;42.550;23.120;2023-04-04T12:55:55;91770.13;;;4.84;nan
39681;BME280;26327;42.550;23.120;2023-04-04T12:58:24;91817.97;;;5.38;nan
39681;BME280;26327;42.550;23.120;2023-04-04T13:00:52;91809.34;;;5.46;nan
39681;BME280;26327;42.550;23.120;2023-04-04T13:03:20;91724.81;;;4.97;nan
39681;BME280;26327;42.550;23.120;2023-04-04T13:05:47;91772.47;;;4.70;nan
39681;BME280;26327;42.550;23.120;2023-04-04T13:08:13;91809.75;;;4.97;nan
39681;BME280;26327;42.550;23.120;2023-04-04T13:11:02;91773.72;;;4.97;nan
39681;BME280;26327;42.550;23.120;2023-04-04T13:15:58;91825.91;;;4.60;nan
39681;BME280;26327;42.550;23.120;2023-04-04T13:18:25;91802.25;;;4.65;nan
39681;BME280;26327;42.550;23.120;2023-04-04T13:20:56;91836.94;;;4.77;nan
39681;BME280;26327;42.550;23.120;2023-04-04T13:23:21;91781.13;;;4.16;nan
39681;BME280;26327;42.550;23.120;2023-04-04T13:25:47;91828.78;;;4.34;nan
39681;BME280;26327;42.550;23.120;2023-04-04T13:28:12;91782.41;;;4.51;nan
39681;BME280;26327;42.550;23.120;2023-04-04T13:30:38;91773.94;;;4.11;nan
39681;BME280;26327;42.550;23.120;2023-04-04T13:33:08;91849.22;;;4.59;nan
39681;BME280;26327;42.550;23.120;2023-04-04T13:35:34;91850.25;;;4.50;nan
39681;BME280;26327;42.550;23.120;2023-04-04T13:37:59;91843.75;;;4.31;nan
39681;BME280;26327;42.550;23.120;2023-04-04T13:40:25;91862.97;;;4.43;nan
39681;BME280;26327;42.550;23.120;2023-04-04T13:42:51;91799.03;;;4.01;nan
39681;BME280;26327;42.550;23.120;2023-04-04T13:45:17;91798.88;;;4.02;nan
39681;BME280;26327;42.550;23.120;2023-04-04T13:47:42;91866.31;;;4.52;nan
39681;BME280;26327;42.550;23.120;2023-04-04T13:50:08;91817.47;;;4.13;nan
39681;BME280;26327;42.550;23.120;2023-04-04T13:52:33;91845.09;;;4.10;nan
39681;BME280;26327;42.550;23.120;2023-04-04T13:54:59;91783.41;;;3.71;nan
39681;BME280;26327;42.550;23.120;2023-04-04T13:57:26;91819.25;;;3.57;nan
39681;BME280;26327;42.550;23.120;2023-04-04T13:59:52;91834.81;;;3.55;nan
39681;BME280;26327;42.550;23.120;2023-04-04T14:02:20;91892.25;;;3.87;nan
39681;BME280;26327;42.550;23.120;2023-04-04T14:04:45;91872.03;;;3.84;nan
39681;BME280;26327;42.550;23.120;2023-04-04T14:07:11;91861.75;;;3.84;nan
39681;BME280;26327;42.550;23.120;2023-04-04T14:09:36;91902.38;;;3.56;nan
39681;BME280;26327;42.550;23.120;2023-04-04T14:12:02;91837.53;;;3.54;nan
39681;BME280;26327;42.550;23.120;2023-04-04T14:14:27;91831.47;;;3.38;nan
39681;BME280;26327;42.550;23.120;2023-04-04T14:16:52;91906.22;;;3.92;nan
39681;BME280;26327;42.550;23.120;2023-04-04T14:19:18;91881.00;;;3.71;nan
39681;BME280;26327;42.550;23.120;2023-04-04T14:21:43;91854.75;;;3.37;nan
39681;BME280;26327;42.550;23.120;2023-04-04T14:24:09;91847.22;;;3.35;nan
39681;BME280;26327;42.550;23.120;2023-04-04T14:26:34;91930.94;;;3.69;nan
39681;BME280;26327;42.550;23.120;2023-04-04T14:29:01;91873.50;;;3.13;nan
39681;BME280;26327;42.550;23.120;2023-04-04T14:31:27;91932.41;;;3.55;nan
39681;BME280;26327;42.550;23.120;2023-04-04T14:33:53;91920.38;;;3.56;nan
39681;BME280;26327;42.550;23.120;2023-04-04T14:36:18;91867.41;;;2.98;nan
39681;BME280;26327;42.550;23.120;2023-04-04T14:38:45;91917.16;;;3.54;nan
39681;BME280;26327;42.550;23.120;2023-04-04T14:41:11;91936.25;;;3.59;nan
39681;BME280;26327;42.550;23.120;2023-04-04T14:43:37;91927.75;;;3.51;nan
39681;BME280;26327;42.550;23.120;2023-04-04T14:46:03;91937.22;;;3.50;nan
39681;BME280;26327;42.550;23.120;2023-04-04T14:48:29;91937.53;;;3.55;nan
39681;BME280;26327;42.550;23.120;2023-04-04T14:50:54;91923.91;;;3.46;nan
39681;BME280;26327;42.550;23.120;2023-04-04T14:53:20;91925.78;;;3.04;nan
39681;BME280;26327;42.550;23.120;2023-04-04T14:55:47;91944.56;;;3.12;nan
39681;BME280;26327;42.550;23.120;2023-04-04T14:58:12;91970.75;;;3.32;nan
39681;BME280;26327;42.550;23.120;2023-04-04T15:00:38;91917.13;;;2.97;nan
39681;BME280;26327;42.550;23.120;2023-04-04T15:03:03;91890.66;;;2.88;nan
39681;BME280;26327;42.550;23.120;2023-04-04T15:05:30;91960.81;;;3.45;nan
39681;BME280;26327;42.550;23.120;2023-04-04T15:07:57;91915.03;;;3.00;nan
39681;BME280;26327;42.550;23.120;2023-04-04T15:10:23;91960.78;;;3.21;nan
39681;BME280;26327;42.550;23.120;2023-04-04T15:12:48;91936.03;;;2.96;nan
39681;BME280;26327;42.550;23.120;2023-04-04T15:15:14;91970.41;;;3.27;nan
39681;BME280;26327;42.550;23.120;2023-04-04T15:17:40;91977.44;;;3.09;nan
39681;BME280;26327;42.550;23.120;2023-04-04T15:20:06;91979.69;;;3.12;nan
39681;BME280;26327;42.550;23.120;2023-04-04T15:22:32;91960.59;;;2.98;nan
39681;BME280;26327;42.550;23.120;2023-04-04T15:24:58;91904.94;;;2.91;nan
39681;BME280;26327;42.550;23.120;2023-04-04T15:27:24;91926.44;;;3.06;nan
39681;BME280;26327;42.550;23.120;2023-04-04T15:29:49;91929.31;;;3.03;nan
39681;BME280;26327;42.550;23.120;2023-04-04T15:32:16;91910.81;;;2.75;nan
39681;BME280;26327;42.550;23.120;2023-04-04T15:34:41;91983.06;;;3.21;nan
39681;BME280;26327;42.550;23.120;2023-04-04T15:37:06;91976.66;;;3.16;nan
39681;BME280;26327;42.550;23.120;2023-04-04T15:39:34;91992.53;;;3.20;nan
39681;BME280;26327;42.550;23.120;2023-04-04T15:42:00;91939.09;;;3.07;nan
39681;BME280;26327;42.550;23.120;2023-04-04T15:44:26;91917.13;;;2.89;nan
39681;BME280;26327;42.550;23.120;2023-04-04T15:46:51;91989.63;;;3.07;nan
39681;BME280;26327;42.550;23.120;2023-04-04T15:49:16;91998.31;;;3.14;nan
39681;BME280;26327;42.550;23.120;2023-04-04T15:51:42;91943.66;;;2.71;nan
39681;BME280;26327;42.550;23.120;2023-04-04T15:54:09;91942.06;;;2.70;nan
39681;BME280;26327;42.550;23.120;2023-04-04T15:56:35;91998.28;;;2.98;nan
39681;BME280;26327;42.550;23.120;2023-04-04T15:59:03;91989.66;;;3.15;nan
39681;BME280;26327;42.550;23.120;2023-04-04T16:01:28;91998.31;;;3.14;nan
39681;BME280;26327;42.550;23.120;2023-04-04T16:03:53;91963.13;;;2.90;nan
39681;BME280;26327;42.550;23.120;2023-04-04T16:06:19;91935.28;;;2.53;nan
39681;BME280;26327;42.550;23.120;2023-04-04T16:08:44;92018.22;;;3.20;nan
39681;BME280;26327;42.550;23.120;2023-04-04T16:11:10;91962.97;;;2.92;nan
39681;BME280;26327;42.550;23.120;2023-04-04T16:13:35;91986.06;;;2.92;nan
39681;BME280;26327;42.550;23.120;2023-04-04T16:16:01;91927.75;;;2.60;nan
39681;BME280;26327;42.550;23.120;2023-04-04T16:18:26;92020.59;;;3.05;nan
39681;BME280;26327;42.550;23.120;2023-04-04T16:20:52;92007.88;;;2.88;nan
39681;BME280;26327;42.550;23.120;2023-04-04T16:23:17;91962.53;;;2.62;nan
39681;BME280;26327;42.550;23.120;2023-04-04T16:25:43;92034.88;;;3.08;nan
39681;BME280;26327;42.550;23.120;2023-04-04T16:28:09;92029.44;;;3.27;nan
39681;BME280;26327;42.550;23.120;2023-04-04T16:30:35;92021.41;;;3.22;nan
39681;BME280;26327;42.550;23.120;2023-04-04T16:33:00;92030.88;;;3.22;nan
39681;BME280;26327;42.550;23.120;2023-04-04T16:35:26;91985.94;;;2.59;nan
39681;BME280;26327;42.550;23.120;2023-04-04T16:37:52;92023.97;;;2.72;nan
39681;BME280;26327;42.550;23.120;2023-04-04T16:40:18;92031.38;;;2.83;nan
39681;BME280;26327;42.550;23.120;2023-04-04T16:42:44;92032.00;;;2.77;nan
39681;BME280;26327;42.550;23.120;2023-04-04T16:45:09;91977.72;;;2.21;nan
39681;BME280;26327;42.550;23.120;2023-04-04T16:47:35;92036.22;;;2.52;nan
39681;BME280;26327;42.550;23.120;2023-04-04T16:50:02;92039.53;;;2.78;nan
39681;BME280;26327;42.550;23.120;2023-04-04T16:52:28;92045.72;;;2.94;nan
39681;BME280;26327;42.550;23.120;2023-04-04T16:54:54;92050.47;;;2.80;nan
39681;BME280;26327;42.550;23.120;2023-04-04T16:57:19;92052.47;;;2.95;nan
39681;BME280;26327;42.550;23.120;2023-04-04T16:59:45;92043.72;;;2.79;nan
39681;BME280;26327;42.550;23.120;2023-04-04T17:02:10;92050.22;;;2.66;nan
39681;BME280;26327;42.550;23.120;2023-04-04T17:04:36;92049.94;;;2.69;nan
39681;BME280;26327;42.550;23.120;2023-04-04T17:07:05;92062.97;;;2.49;nan
39681;BME280;26327;42.550;23.120;2023-04-04T17:09:31;92078.50;;;2.48;nan
39681;BME280;26327;42.550;23.120;2023-04-04T17:11:56;92076.94;;;2.55;nan
39681;BME280;26327;42.550;23.120;2023-04-04T17:14:24;92074.13;;;2.66;nan
39681;BME280;26327;42.550;23.120;2023-04-04T17:16:49;92072.44;;;2.49;nan
39681;BME280;26327;42.550;23.120;2023-04-04T17:19:15;92026.53;;;2.12;nan
39681;BME280;26327;42.550;23.120;2023-04-04T17:21:40;92046.44;;;2.44;nan
39681;BME280;26327;42.550;23.120;2023-04-04T17:24:06;92077.19;;;2.70;nan
39681;BME280;26327;42.550;23.120;2023-04-04T17:26:31;92026.88;;;2.43;nan
39681;BME280;26327;42.550;23.120;2023-04-04T17:28:56;92072.72;;;2.72;nan
39681;BME280;26327;42.550;23.120;2023-04-04T17:31:22;92095.09;;;2.62;nan
39681;BME280;26327;42.550;23.120;2023-04-04T17:33:47;92079.88;;;2.60;nan
39681;BME280;26327;42.550;23.120;2023-04-04T17:36:13;92084.84;;;2.88;nan
39681;BME280;26327;42.550;23.120;2023-04-04T17:38:38;92030.66;;;2.31;nan
39681;BME280;26327;42.550;23.120;2023-04-04T17:41:04;92104.41;;;2.89;nan
39681;BME280;26327;42.550;23.120;2023-04-04T17:43:30;92092.41;;;2.71;nan
39681;BME280;26327;42.550;23.120;2023-04-04T17:45:56;92054.97;;;2.52;nan
39681;BME280;26327;42.550;23.120;2023-04-04T17:48:22;91988.16;;;1.76;nan
39681;BME280;26327;42.550;23.120;2023-04-04T17:50:51;92106.72;;;2.48;nan
39681;BME280;26327;42.550;23.120;2023-04-04T17:53:17;92052.75;;;2.06;nan
39681;BME280;26327;42.550;23.120;2023-04-04T17:55:43;92096.72;;;2.19;nan
39681;BME280;26327;42.550;23.120;2023-04-04T17:58:09;92058.47;;;1.82;nan
39681;BME280;26327;42.550;23.120;2023-04-04T18:00:34;92079.13;;;1.80;nan
39681;BME280;26327;42.550;23.120;2023-04-04T18:03:00;92084.03;;;1.92;nan
39681;BME280;26327;42.550;23.120;2023-04-04T18:05:25;92101.38;;;1.98;nan
39681;BME280;26327;42.550;23.120;2023-04-04T18:07:51;92115.56;;;2.10;nan
39681;BME280;26327;42.550;23.120;2023-04-04T18:10:17;92136.03;;;2.28;nan
39681;BME280;26327;42.550;23.120;2023-04-04T18:12:43;92062.22;;;1.52;nan
39681;BME280;26327;42.550;23.120;2023-04-04T18:15:09;92122.81;;;2.14;nan
39681;BME280;26327;42.550;23.120;2023-04-04T18:17:35;92132.41;;;2.12;nan
39681;BME280;26327;42.550;23.120;2023-04-04T18:20:01;92070.13;;;1.58;nan
39681;BME280;26327;42.550;23.120;2023-04-04T18:22:28;92124.72;;;1.95;nan
39681;BME280;26327;42.550;23.120;2023-04-04T18:24:54;92074.41;;;1.40;nan
39681;BME280;26327;42.550;23.120;2023-04-04T18:27:19;92140.53;;;1.90;nan
39681;BME280;26327;42.550;23.120;2023-04-04T18:29:45;92077.88;;;1.49;nan
39681;BME280;26327;42.550;23.120;2023-04-04T18:32:11;92057.97;;;1.25;nan
39681;BME280;26327;42.550;23.120;2023-04-04T18:34:36;92143.31;;;1.97;nan
39681;BME280;26327;42.550;23.120;2023-04-04T18:37:02;92084.94;;;1.37;nan
39681;BME280;26327;42.550;23.120;2023-04-04T18:39:27;92140.88;;;1.60;nan
39681;BME280;26327;42.550;23.120;2023-04-04T18:41:53;92152.94;;;1.67;nan
39681;BME280;26327;42.550;23.120;2023-04-04T18:44:18;92113.22;;;1.45;nan
39681;BME280;26327;42.550;23.120;2023-04-04T18:46:45;92149.88;;;1.64;nan
39681;BME280;26327;42.550;23.120;2023-04-04T18:49:10;92090.84;;;1.47;nan
39681;BME280;26327;42.550;23.120;2023-04-04T18:51:36;92090.72;;;1.39;nan
39681;BME280;26327;42.550;23.120;2023-04-04T18:54:02;92108.94;;;1.36;nan
39681;BME280;26327;42.550;23.120;2023-04-04T18:56:27;92120.53;;;1.58;nan
39681;BME280;26327;42.550;23.120;2023-04-04T18:58:53;92165.72;;;1.49;nan
39681;BME280;26327;42.550;23.120;2023-04-04T19:01:18;92117.31;;;1.29;nan
39681;BME280;26327;42.550;23.120;2023-04-04T19:03:43;92144.28;;;1.50;nan
39681;BME280;26327;42.550;23.120;2023-04-04T19:06:13;92168.75;;;1.63;nan
39681;BME280;26327;42.550;23.120;2023-04-04T19:08:40;92158.28;;;1.29;nan
39681;BME280;26327;42.550;23.120;2023-04-04T19:11:06;92185.84;;;1.44;nan
39681;BME280;26327;42.550;23.120;2023-04-04T19:13:32;92196.59;;;1.38;nan
39681;BME280;26327;42.550;23.120;2023-04-04T19:15:57;92121.81;;;0.99;nan
39681;BME280;26327;42.550;23.120;2023-04-04T19:18:23;92170.78;;;1.04;nan
39681;BME280;26327;42.550;23.120;2023-04-04T19:20:49;92175.38;;;0.91;nan
39681;BME280;26327;42.550;23.120;2023-04-04T19:23:15;92121.94;;;0.60;nan
39681;BME280;26327;42.550;23.120;2023-04-04T19:25:40;92132.03;;;0.89;nan
39681;BME280;26327;42.550;23.120;2023-04-04T19:28:06;92128.81;;;0.87;nan
39681;BME280;26327;42.550;23.120;2023-04-04T19:33:07;92192.72;;;1.34;nan
39681;BME280;26327;42.550;23.120;2023-04-04T19:35:57;92200.13;;;1.37;nan
39681;BME280;26327;42.550;23.120;2023-04-04T19:38:25;92213.06;;;1.36;nan
39681;BME280;26327;42.550;23.120;2023-04-04T19:40:58;92142.13;;;1.01;nan
39681;BME280;26327;42.550;23.120;2023-04-04T19:43:24;92153.81;;;1.03;nan
39681;BME280;26327;42.550;23.120;2023-04-04T19:45:51;92158.22;;;1.11;nan
39681;BME280;26327;42.550;23.120;2023-04-04T19:51:10;92212.50;;;1.42;nan
39681;BME280;26327;42.550;23.120;2023-04-04T19:53:37;92224.31;;;1.52;nan
39681;BME280;26327;42.550;23.120;2023-04-04T19:56:06;92191.03;;;1.25;nan
39681;BME280;26327;42.550;23.120;2023-04-04T19:58:32;92208.97;;;1.52;nan
39681;BME280;26327;42.550;23.120;2023-04-04T20:00:58;92206.63;;;1.59;nan
39681;BME280;26327;42.550;23.120;2023-04-04T20:03:33;92205.34;;;1.45;nan
39681;BME280;26327;42.550;23.120;2023-04-04T20:06:11;92218.53;;;1.50;nan
39681;BME280;26327;42.550;23.120;2023-04-04T20:08:40;92147.34;;;1.09;nan
39681;BME280;26327;42.550;23.120;2023-04-04T20:11:09;92150.56;;;1.11;nan
39681;BME280;26327;42.550;23.120;2023-04-04T20:13:36;92220.34;;;1.31;nan
39681;BME280;26327;42.550;23.120;2023-04-04T20:18:36;92145.63;;;0.90;nan
39681;BME280;26327;42.550;23.120;2023-04-04T20:21:12;92216.84;;;1.32;nan
39681;BME280;26327;42.550;23.120;2023-04-04T20:26:12;92208.94;;;1.80;nan
39681;BME280;26327;42.550;23.120;2023-04-04T20:28:43;92131.56;;;1.13;nan
39681;BME280;26327;42.550;23.120;2023-04-04T20:31:13;92074.31;;;0.87;nan
39681;BME280;26327;42.550;23.120;2023-04-04T20:33:40;92136.28;;;1.08;nan
39681;BME280;26327;42.550;23.120;2023-04-04T20:36:29;92206.94;;;1.74;nan
39681;BME280;26327;42.550;23.120;2023-04-04T20:38:55;92191.22;;;1.41;nan
39681;BME280;26327;42.550;23.120;2023-04-04T20:41:22;92231.16;;;1.62;nan
39681;BME280;26327;42.550;23.120;2023-04-04T20:43:53;92205.91;;;1.39;nan
39681;BME280;26327;42.550;23.120;2023-04-04T20:46:23;92212.50;;;1.42;nan
39681;BME280;26327;42.550;23.120;2023-04-04T20:48:50;92226.75;;;1.54;nan
39681;BME280;26327;42.550;23.120;2023-04-04T20:51:23;92162.88;;;0.98;nan
39681;BME280;26327;42.550;23.120;2023-04-04T20:53:51;92172.53;;;1.04;nan
39681;BME280;26327;42.550;23.120;2023-04-04T20:59:01;92232.53;;;1.19;nan
39681;BME280;26327;42.550;23.120;2023-04-04T21:01:26;92228.09;;;1.11;nan
39681;BME280;26327;42.550;23.120;2023-04-04T21:03:52;92230.31;;;1.34;nan
39681;BME280;26327;42.550;23.120;2023-04-04T21:06:17;92222.00;;;1.22;nan
39681;BME280;26327;42.550;23.120;2023-04-04T21:08:47;92223.81;;;1.39;nan
39681;BME280;26327;42.550;23.120;2023-04-04T21:11:21;92237.84;;;1.45;nan
39681;BME280;26327;42.550;23.120;2023-04-04T21:13:47;92226.13;;;1.42;nan
39681;BME280;26327;42.550;23.120;2023-04-04T21:16:14;92236.00;;;1.27;nan
39681;BME280;26327;42.550;23.120;2023-04-04T21:18:42;92169.97;;;0.94;nan
39681;BME280;26327;42.550;23.120;2023-04-04T21:21:13;92189.97;;;1.18;nan
39681;BME280;26327;42.550;23.120;2023-04-04T21:26:37;92240.91;;;1.48;nan
39681;BME280;26327;42.550;23.120;2023-04-04T21:31:38;92249.50;;;1.57;nan
39681;BME280;26327;42.550;23.120;2023-04-04T21:36:40;92256.56;;;1.45;nan